Time;durP1;ratioP1;P1;durP2;ratioP2;P2;SDS_P1;SDS_P2;PMS_P1;PMS_P2;Temp;Humidity;BMP_temperature;BMP_pressure;BME280_temperature;BME280_humidity;BME280_pressure;Samples;Min_cycle;Max_cycle;Signal;HPM_P1;HPM_P2
2021/06/14 00:02:45;;;;;;;5.05;2.78;;;14.90;99.90;;;;;;12432788;28;20099;-35
2021/06/14 00:08:47;;;;;;;9.10;3.30;;;14.90;99.90;;;;;;12432319;28;20050;-36
2021/06/14 00:14:51;;;;;;;7.28;3.10;;;14.80;99.90;;;;;;12443610;28;20053;-35
2021/06/14 00:20:59;;;;;;;5.20;2.83;;;14.50;99.90;;;;;;12445834;28;20050;-36
2021/06/14 00:27:01;;;;;;;6.43;3.22;;;14.60;99.90;;;;;;12444143;28;20492;-35
2021/06/14 00:33:05;;;;;;;7.00;3.20;;;14.70;99.90;;;;;;12442702;28;20137;-35
2021/06/14 00:39:06;;;;;;;6.82;2.80;;;14.60;99.90;;;;;;12444018;28;20165;-36
2021/06/14 00:45:15;;;;;;;8.65;3.00;;;14.30;99.90;;;;;;12440909;28;20046;-35
2021/06/14 00:51:16;;;;;;;9.10;3.53;;;14.40;99.90;;;;;;12442196;28;20118;-35
2021/06/14 00:57:18;;;;;;;8.65;3.85;;;14.30;99.90;;;;;;12438973;28;20092;-35
2021/06/14 01:03:21;;;;;;;10.60;3.70;;;14.30;99.90;;;;;;12438725;28;20456;-35
2021/06/14 01:09:23;;;;;;;9.50;3.80;;;14.20;99.90;;;;;;12444170;28;20080;-35
2021/06/14 01:15:28;;;;;;;7.03;3.72;;;14.20;99.90;;;;;;12435268;28;20555;-36
2021/06/14 01:21:44;;;;;;;8.40;3.60;;;14.10;99.90;;;;;;12437098;28;20820;-35
2021/06/14 01:27:50;;;;;;;8.82;3.78;;;14.10;99.90;;;;;;12442466;28;20558;-35
2021/06/14 01:33:53;;;;;;;10.25;3.17;;;14.00;99.90;;;;;;12440123;28;20103;-36
2021/06/14 01:39:55;;;;;;;8.57;3.40;;;14.10;99.90;;;;;;12444700;28;20396;-36
2021/06/14 01:46:02;;;;;;;6.25;3.42;;;14.10;99.90;;;;;;12439048;28;20053;-35
2021/06/14 01:52:05;;;;;;;10.93;3.60;;;13.90;99.90;;;;;;12437696;28;20089;-35
2021/06/14 01:58:07;;;;;;;6.85;3.30;;;13.90;99.90;;;;;;12444048;28;20168;-35
2021/06/14 02:04:12;;;;;;;8.55;3.45;;;13.70;99.90;;;;;;12441643;28;20506;-35
2021/06/14 02:10:14;;;;;;;8.02;3.38;;;13.60;99.90;;;;;;12444097;28;20513;-35
2021/06/14 02:16:18;;;;;;;7.18;3.45;;;13.60;99.90;;;;;;12436561;28;20452;-35
2021/06/14 02:22:20;;;;;;;15.88;3.40;;;13.40;99.90;;;;;;12439978;28;20052;-35
2021/06/14 02:28:22;;;;;;;9.45;3.53;;;13.20;99.90;;;;;;12437780;28;20199;-35
2021/06/14 02:34:24;;;;;;;11.35;3.67;;;13.30;99.90;;;;;;12436739;28;20049;-35
2021/06/14 02:40:30;;;;;;;8.80;3.90;;;13.20;99.90;;;;;;12435496;28;20041;-35
2021/06/14 02:46:38;;;;;;;7.97;3.78;;;13.30;99.90;;;;;;12434532;28;20110;-35
2021/06/14 02:52:40;;;;;;;10.18;3.15;;;13.30;99.90;;;;;;12438047;28;20102;-35
2021/06/14 02:58:44;;;;;;;14.23;3.65;;;13.40;99.90;;;;;;12441785;28;20501;-36
2021/06/14 03:04:46;;;;;;;7.17;3.47;;;13.50;99.90;;;;;;12433408;28;20061;-36
2021/06/14 03:10:48;;;;;;;10.85;3.45;;;13.40;99.90;;;;;;12435273;28;20453;-35
2021/06/14 03:16:50;;;;;;;11.45;3.78;;;13.40;99.90;;;;;;12439172;28;20115;-35
2021/06/14 03:22:53;;;;;;;10.00;3.95;;;13.30;99.90;;;;;;12438926;28;20053;-35
2021/06/14 03:28:56;;;;;;;7.30;3.55;;;13.20;99.90;;;;;;12436215;28;20100;-35
2021/06/14 03:34:59;;;;;;;10.63;3.65;;;13.20;99.90;;;;;;12435414;28;20729;-35
2021/06/14 03:41:04;;;;;;;10.85;4.60;;;13.20;99.90;;;;;;12442359;28;20056;-35
2021/06/14 03:47:06;;;;;;;7.57;4.10;;;13.20;99.90;;;;;;12442961;28;20118;-37
2021/06/14 03:53:08;;;;;;;9.93;4.22;;;13.20;99.90;;;;;;12445943;28;20509;-35
2021/06/14 03:59:10;;;;;;;8.95;3.85;;;13.10;99.90;;;;;;12446989;28;20328;-35
2021/06/14 04:05:12;;;;;;;9.40;4.10;;;13.10;99.90;;;;;;12442693;28;20138;-35
2021/06/14 04:11:15;;;;;;;8.50;4.63;;;13.20;99.90;;;;;;12441848;28;20042;-35
2021/06/14 04:17:17;;;;;;;7.55;4.10;;;13.10;99.90;;;;;;12446112;28;20371;-35
2021/06/14 04:23:18;;;;;;;11.00;4.15;;;13.30;99.90;;;;;;12445065;28;20050;-35
2021/06/14 04:29:21;;;;;;;11.32;4.22;;;13.40;99.90;;;;;;12449312;28;20467;-35
2021/06/14 04:35:22;;;;;;;9.95;4.63;;;13.50;99.90;;;;;;12442050;28;20064;-35
2021/06/14 04:41:24;;;;;;;7.25;3.75;;;13.60;99.90;;;;;;12443214;28;20134;-35
2021/06/14 04:47:26;;;;;;;8.57;4.45;;;13.50;99.90;;;;;;12444815;28;20054;-35
2021/06/14 04:53:28;;;;;;;10.43;4.28;;;13.50;99.90;;;;;;12432148;28;20041;-35
2021/06/14 04:59:30;;;;;;;10.93;4.13;;;13.60;99.90;;;;;;12445383;28;20053;-35
2021/06/14 05:05:32;;;;;;;10.32;4.30;;;13.60;99.90;;;;;;12440825;28;20049;-36
2021/06/14 05:11:34;;;;;;;7.43;4.18;;;13.70;99.90;;;;;;12441684;28;20099;-35
2021/06/14 05:17:36;;;;;;;9.20;4.35;;;13.80;99.90;;;;;;12441594;28;20054;-35
2021/06/14 05:23:38;;;;;;;10.07;4.30;;;13.90;99.90;;;;;;12447430;28;20450;-35
2021/06/14 05:29:41;;;;;;;8.88;4.85;;;14.00;99.90;;;;;;12441568;28;20057;-35
2021/06/14 05:35:42;;;;;;;11.50;4.28;;;14.00;99.90;;;;;;12441382;28;20046;-35
2021/06/14 05:41:44;;;;;;;8.23;4.22;;;14.10;99.90;;;;;;12451192;28;20076;-35
2021/06/14 05:47:46;;;;;;;10.15;5.10;;;14.10;99.90;;;;;;12425326;28;20493;-36
2021/06/14 05:53:48;;;;;;;11.90;4.57;;;14.20;99.90;;;;;;12439426;28;20157;-36
2021/06/14 05:59:50;;;;;;;8.82;4.32;;;14.50;99.90;;;;;;12440706;28;20056;-36
2021/06/14 06:05:51;;;;;;;8.73;4.53;;;14.80;99.90;;;;;;12429650;28;20115;-35
2021/06/14 06:11:53;;;;;;;9.25;4.45;;;14.90;99.90;;;;;;12435556;28;20427;-35
2021/06/14 06:17:56;;;;;;;7.85;4.20;;;15.00;99.90;;;;;;12434117;28;20650;-36
2021/06/14 06:23:59;;;;;;;8.07;4.57;;;15.20;99.90;;;;;;12435764;28;20069;-36
2021/06/14 06:30:03;;;;;;;9.68;4.20;;;15.40;99.90;;;;;;12427308;28;20174;-36
2021/06/14 06:36:05;;;;;;;12.40;4.03;;;15.60;99.90;;;;;;12433231;28;20103;-37
2021/06/14 06:42:07;;;;;;;9.93;4.07;;;15.70;99.90;;;;;;12437284;28;20611;-36
2021/06/14 06:48:09;;;;;;;8.23;3.97;;;15.90;99.90;;;;;;12435587;28;20059;-36
2021/06/14 06:54:11;;;;;;;8.50;4.60;;;16.10;99.90;;;;;;12432862;28;20072;-36
2021/06/14 07:00:21;;;;;;;11.43;3.92;;;16.30;99.90;;;;;;12435565;28;20055;-36
2021/06/14 07:06:23;;;;;;;8.60;3.63;;;16.50;99.90;;;;;;12434613;28;20092;-39
2021/06/14 07:12:25;;;;;;;11.45;3.20;;;17.20;99.90;;;;;;12438143;28;20122;-37
2021/06/14 07:18:27;;;;;;;7.32;3.50;;;17.60;99.90;;;;;;12436456;28;20049;-37
2021/06/14 07:24:29;;;;;;;10.25;3.42;;;17.90;99.90;;;;;;12447560;28;20049;-36
2021/06/14 07:30:33;;;;;;;7.43;2.97;;;18.10;99.90;;;;;;12447779;28;20150;-38
2021/06/14 07:36:35;;;;;;;10.23;3.85;;;18.30;99.90;;;;;;12443480;28;20081;-38
2021/06/14 07:42:38;;;;;;;10.23;3.55;;;18.60;99.90;;;;;;12446978;28;20633;-36
2021/06/14 07:48:40;;;;;;;8.68;3.22;;;18.70;99.90;;;;;;12442147;28;20491;-36
2021/06/14 07:54:42;;;;;;;7.80;3.03;;;18.70;99.90;;;;;;12445276;28;20057;-36
2021/06/14 08:00:44;;;;;;;6.75;2.67;;;19.00;99.90;;;;;;12445970;28;20288;-37
2021/06/14 08:06:46;;;;;;;7.07;3.00;;;19.10;99.90;;;;;;12446694;28;20122;-36
2021/06/14 08:12:50;;;;;;;8.45;3.28;;;19.20;99.90;;;;;;12440226;28;20528;-37
2021/06/14 08:25:04;;;;;;;8.00;3.20;;;19.60;99.90;;;;;;12444252;28;20041;-37
2021/06/14 08:31:06;;;;;;;9.30;3.30;;;19.70;99.90;;;;;;12440948;28;20099;-37
2021/06/14 08:37:08;;;;;;;7.60;3.05;;;19.90;99.90;;;;;;12440520;28;20125;-36
2021/06/14 08:43:10;;;;;;;8.52;3.40;;;20.00;99.90;;;;;;12438833;28;21065;-36
2021/06/14 08:49:12;;;;;;;5.88;2.95;;;20.20;99.90;;;;;;12437061;28;20591;-37
2021/06/14 08:55:16;;;;;;;9.35;3.08;;;20.40;99.90;;;;;;12435528;28;20077;-40
2021/06/14 09:01:18;;;;;;;10.40;3.63;;;20.50;99.90;;;;;;12430659;28;20736;-39
2021/06/14 09:07:20;;;;;;;11.73;3.58;;;20.60;99.90;;;;;;12441523;28;20069;-36
2021/06/14 09:13:28;;;;;;;11.30;3.63;;;20.80;99.90;;;;;;12432518;28;20058;-37
2021/06/14 09:19:35;;;;;;;10.77;3.40;;;21.00;99.90;;;;;;12436793;28;20053;-37
2021/06/14 09:25:37;;;;;;;9.48;3.55;;;21.20;99.90;;;;;;12432527;28;20081;-36
2021/06/14 09:31:46;;;;;;;7.45;3.35;;;21.40;99.90;;;;;;12432975;28;20277;-36
2021/06/14 09:37:55;;;;;;;7.93;3.50;;;21.70;99.90;;;;;;12433209;28;20060;-37
2021/06/14 09:43:57;;;;;;;8.75;3.30;;;21.80;99.90;;;;;;12434398;28;20654;-36
2021/06/14 09:50:07;;;;;;;10.75;3.28;;;22.10;99.90;;;;;;12433888;28;20102;-36
2021/06/14 09:56:18;;;;;;;5.82;2.95;;;22.30;99.90;;;;;;12382911;28;20097;-36
2021/06/14 10:02:20;;;;;;;9.98;3.42;;;22.50;99.90;;;;;;12383008;28;20820;-37
2021/06/14 10:08:32;;;;;;;5.70;2.50;;;22.80;99.90;;;;;;12386958;28;20085;-36
2021/06/14 10:14:34;;;;;;;5.75;2.50;;;23.00;99.90;;;;;;12372959;28;20625;-36
2021/06/14 10:20:38;;;;;;;7.50;2.60;;;23.30;99.90;;;;;;12382498;28;20474;-37
2021/06/14 10:26:43;;;;;;;5.63;2.60;;;23.50;99.90;;;;;;12378098;28;20450;-36
2021/06/14 10:32:46;;;;;;;6.50;2.97;;;23.70;99.90;;;;;;12385190;28;20092;-36
2021/06/14 10:38:50;;;;;;;5.45;2.42;;;23.90;99.90;;;;;;12387051;28;20128;-36
2021/06/14 10:44:51;;;;;;;10.70;2.60;;;24.20;99.90;;;;;;12383634;28;20085;-38
2021/06/14 10:50:54;;;;;;;6.18;2.35;;;24.30;99.90;;;;;;12378537;28;20081;-37
2021/06/14 10:57:03;;;;;;;6.60;2.38;;;24.40;99.90;;;;;;12382228;28;20101;-36
2021/06/14 11:03:08;;;;;;;5.90;2.70;;;24.80;99.90;;;;;;12376789;28;20081;-36
2021/06/14 11:09:13;;;;;;;11.60;2.83;;;24.90;99.90;;;;;;12381101;28;20081;-36
2021/06/14 11:15:15;;;;;;;5.68;2.47;;;25.20;99.90;;;;;;12378812;28;20045;-36
2021/06/14 11:21:20;;;;;;;8.43;2.37;;;25.40;99.90;;;;;;12381611;28;20198;-37
2021/06/14 11:27:22;;;;;;;4.97;2.17;;;25.30;99.90;;;;;;12381312;28;20676;-36
2021/06/14 11:33:37;;;;;;;9.63;2.40;;;25.40;99.90;;;;;;12377257;28;20057;-36
2021/06/14 11:39:40;;;;;;;7.70;2.40;;;25.60;99.90;;;;;;12381240;28;20054;-36
2021/06/14 11:45:45;;;;;;;6.63;2.50;;;25.90;99.90;;;;;;12377728;28;20456;-36
2021/06/14 11:51:47;;;;;;;5.03;2.47;;;26.10;99.90;;;;;;12375795;28;20050;-37
2021/06/14 11:57:55;;;;;;;5.20;2.17;;;26.50;99.90;;;;;;12378956;28;20054;-36
2021/06/14 12:03:59;;;;;;;5.10;2.15;;;26.70;99.90;;;;;;12379566;28;20177;-36
2021/06/14 12:10:15;;;;;;;7.47;2.47;;;26.90;99.90;;;;;;12396329;28;20512;-36
2021/06/14 12:16:24;;;;;;;5.00;2.40;;;27.10;99.90;;;;;;12383732;28;20561;-38
2021/06/14 12:22:29;;;;;;;5.63;2.50;;;26.80;99.90;;;;;;12384844;28;20046;-37
2021/06/14 12:28:34;;;;;;;4.10;2.22;;;26.90;99.90;;;;;;12388837;28;20054;-38
2021/06/14 12:34:38;;;;;;;9.48;2.40;;;27.40;99.90;;;;;;12390858;28;20529;-37
2021/06/14 12:40:40;;;;;;;6.28;2.97;;;26.70;99.90;;;;;;12385401;28;20048;-37
2021/06/14 12:46:42;;;;;;;7.37;2.50;;;27.20;99.90;;;;;;12387490;28;20060;-36
2021/06/14 12:52:44;;;;;;;5.88;2.80;;;27.50;99.90;;;;;;12387014;28;20045;-36
2021/06/14 12:58:47;;;;;;;8.55;2.78;;;27.20;99.90;;;;;;12389661;28;20054;-37
2021/06/14 13:04:49;;;;;;;7.97;2.80;;;27.50;99.90;;;;;;12386323;28;20092;-36
2021/06/14 13:10:52;;;;;;;5.40;1.73;;;27.60;99.90;;;;;;12388215;28;20068;-36
2021/06/14 13:16:54;;;;;;;7.72;2.60;;;27.90;99.90;;;;;;12385048;28;20046;-36
2021/06/14 13:23:07;;;;;;;4.38;2.20;;;27.90;99.90;;;;;;12386981;28;20077;-36
2021/06/14 13:29:25;;;;;;;6.88;2.97;;;27.90;99.90;;;;;;12386650;28;20993;-36
2021/06/14 13:35:27;;;;;;;5.63;2.45;;;28.10;99.90;;;;;;12388591;28;20056;-36
2021/06/14 13:41:31;;;;;;;5.55;2.28;;;28.00;99.90;;;;;;12388757;28;20046;-36
2021/06/14 13:47:33;;;;;;;5.57;2.30;;;27.90;99.90;;;;;;12378869;28;20120;-38
2021/06/14 13:53:46;;;;;;;3.97;2.13;;;28.30;99.90;;;;;;12388429;28;20463;-36
2021/06/14 13:59:48;;;;;;;9.27;2.50;;;28.60;99.90;;;;;;12385583;28;20064;-36
2021/06/14 14:05:50;;;;;;;6.82;2.65;;;28.40;99.90;;;;;;12387208;28;20468;-36
2021/06/14 14:11:53;;;;;;;7.40;2.60;;;28.30;99.90;;;;;;12388251;28;20042;-36
2021/06/14 14:17:57;;;;;;;;;;;27.90;99.90;;;;;;12378509;28;20049;-37
2021/06/14 14:24:04;;;;;;;5.82;2.20;;;28.00;99.90;;;;;;12385092;28;20361;-36
2021/06/14 14:30:07;;;;;;;5.35;2.50;;;28.30;99.90;;;;;;12381572;28;20057;-36
2021/06/14 14:36:15;;;;;;;6.10;2.42;;;28.00;99.90;;;;;;12381671;28;20136;-37
2021/06/14 14:42:17;;;;;;;4.63;2.35;;;28.20;99.90;;;;;;12383879;28;20057;-36
2021/06/14 14:48:20;;;;;;;6.70;2.27;;;28.30;99.90;;;;;;12370844;28;20066;-37
2021/06/14 14:54:23;;;;;;;;;;;28.60;99.90;;;;;;12419511;28;20455;-36
2021/06/14 15:00:25;;;;;;;7.07;2.60;;;28.50;99.90;;;;;;12427492;28;20270;-36
2021/06/14 15:06:28;;;;;;;5.30;2.22;;;27.90;99.90;;;;;;12385802;28;20053;-36
2021/06/14 15:12:30;;;;;;;4.80;2.10;;;28.30;99.90;;;;;;12382010;28;20046;-36
2021/06/14 15:18:32;;;;;;;6.60;2.15;;;28.70;99.90;;;;;;12378259;28;20046;-37
2021/06/14 15:24:35;;;;;;;6.10;2.15;;;28.70;99.90;;;;;;12381795;28;20127;-37
2021/06/14 15:30:38;;;;;;;5.88;2.28;;;28.70;99.90;;;;;;12383277;28;20549;-37
2021/06/14 15:36:40;;;;;;;5.72;2.30;;;28.70;99.90;;;;;;12380629;28;20100;-36
2021/06/14 15:42:45;;;;;;;28.40;22.23;;;28.40;99.90;;;;;;12386593;28;20050;-38
2021/06/14 15:48:48;;;;;;;7.50;3.50;;;28.10;99.90;;;;;;12387266;28;20054;-36
2021/06/14 15:54:50;;;;;;;5.03;2.20;;;28.30;99.90;;;;;;12384037;28;20086;-36
2021/06/14 16:01:12;;;;;;;5.93;2.00;;;28.40;99.90;;;;;;12389380;28;20033;-36
2021/06/14 16:07:14;;;;;;;6.10;2.17;;;28.60;99.90;;;;;;12388540;28;20491;-36
2021/06/14 16:13:16;;;;;;;5.13;2.47;;;28.30;99.90;;;;;;12391518;28;20454;-36
2021/06/14 16:19:18;;;;;;;8.05;2.35;;;28.10;99.90;;;;;;12388853;28;20054;-36
2021/06/14 16:25:20;;;;;;;6.10;2.67;;;28.00;99.90;;;;;;12386093;28;20403;-36
2021/06/14 16:31:22;;;;;;;5.23;2.20;;;28.30;99.90;;;;;;12387597;28;20050;-36
2021/06/14 16:37:24;;;;;;;5.07;2.25;;;28.70;99.90;;;;;;12385632;28;20469;-37
2021/06/14 16:43:28;;;;;;;5.10;2.42;;;28.80;99.90;;;;;;12386239;28;20069;-37
2021/06/14 16:49:30;;;;;;;5.90;2.20;;;29.00;99.90;;;;;;12384031;28;20169;-37
2021/06/14 16:55:31;;;;;;;6.33;2.33;;;29.20;99.90;;;;;;12379574;28;20054;-37
2021/06/14 17:01:33;;;;;;;4.00;2.20;;;29.30;99.90;;;;;;12383781;28;20297;-36
2021/06/14 17:07:36;;;;;;;4.10;2.30;;;29.40;99.90;;;;;;12389181;28;20058;-36
2021/06/14 17:13:40;;;;;;;7.28;2.40;;;29.70;99.90;;;;;;12388562;28;23697;-37
2021/06/14 17:19:42;;;;;;;7.43;2.45;;;29.60;99.90;;;;;;12387860;28;20042;-37
2021/06/14 17:25:44;;;;;;;5.15;2.03;;;28.90;99.90;;;;;;12388227;28;20054;-37
2021/06/14 17:31:47;;;;;;;6.60;2.07;;;29.10;99.90;;;;;;12381684;28;20072;-37
2021/06/14 17:37:50;;;;;;;10.13;2.55;;;29.20;99.90;;;;;;12381422;28;20439;-37
2021/06/14 17:43:52;;;;;;;6.40;2.08;;;29.50;99.90;;;;;;12379293;28;20046;-41
2021/06/14 17:49:54;;;;;;;6.03;2.55;;;29.80;99.90;;;;;;12386295;28;20050;-41
2021/06/14 17:55:56;;;;;;;4.53;2.13;;;29.50;99.90;;;;;;12382456;28;20123;-41
2021/06/14 18:02:02;;;;;;;8.90;2.40;;;29.50;99.90;;;;;;12385303;28;21402;-41
2021/06/14 18:08:06;;;;;;;5.75;2.38;;;29.40;99.90;;;;;;12382608;28;20053;-41
2021/06/14 18:14:09;;;;;;;4.97;2.20;;;29.30;99.90;;;;;;12384258;28;20096;-41
2021/06/14 18:20:14;;;;;;;;;;;28.80;99.90;;;;;;12382711;28;20153;-40
2021/06/14 18:26:16;;;;;;;7.93;2.13;;;28.00;99.90;;;;;;12389259;28;20033;-40
2021/06/14 18:32:18;;;;;;;8.33;2.27;;;27.50;99.90;;;;;;12384898;28;20060;-42
2021/06/14 18:38:23;;;;;;;4.90;2.50;;;27.10;99.90;;;;;;12375196;28;20050;-41
2021/06/14 18:44:25;;;;;;;4.45;2.40;;;26.50;99.90;;;;;;12376823;28;20468;-40
2021/06/14 18:50:41;;;;;;;3.70;2.15;;;26.40;99.90;;;;;;12381591;28;20050;-40
2021/06/14 18:56:43;;;;;;;5.82;2.97;;;26.10;99.90;;;;;;12382601;28;20087;-40
2021/06/14 19:02:46;;;;;;;13.85;2.83;;;25.80;99.90;;;;;;12374955;28;20046;-41
2021/06/14 19:08:48;;;;;;;4.60;2.37;;;25.50;99.90;;;;;;12382930;28;20085;-40
2021/06/14 19:14:50;;;;;;;5.85;2.53;;;25.10;99.90;;;;;;12374566;28;20050;-40
2021/06/14 19:20:53;;;;;;;6.50;3.15;;;24.60;99.90;;;;;;12383086;28;20038;-40
2021/06/14 19:26:55;;;;;;;;;;;24.10;99.90;;;;;;12385701;28;20141;-40
2021/06/14 19:32:57;;;;;;;5.88;2.70;;;23.70;99.90;;;;;;12383579;28;19925;-40
2021/06/14 19:38:59;;;;;;;7.47;3.27;;;23.40;99.90;;;;;;12385903;28;20152;-40
2021/06/14 19:45:02;;;;;;;6.65;2.47;;;23.10;99.90;;;;;;12379399;28;20050;-40
2021/06/14 19:51:05;;;;;;;8.05;3.05;;;22.90;99.90;;;;;;12383803;28;20049;-40
2021/06/14 19:57:07;;;;;;;8.30;2.70;;;22.70;99.90;;;;;;12381856;28;20078;-41
2021/06/14 20:03:09;;;;;;;6.28;2.88;;;22.50;99.90;;;;;;12383757;28;20050;-42
2021/06/14 20:09:11;;;;;;;9.07;3.03;;;22.30;99.90;;;;;;12381087;28;20141;-40
2021/06/14 20:15:14;;;;;;;4.22;2.38;;;22.10;99.90;;;;;;12383141;28;20829;-40
2021/06/14 20:21:16;;;;;;;4.97;2.70;;;22.00;99.90;;;;;;12379716;28;20046;-42
2021/06/14 20:27:17;;;;;;;6.28;2.72;;;21.90;99.90;;;;;;12393626;28;20367;-40
2021/06/14 20:33:20;;;;;;;5.15;2.47;;;21.40;99.90;;;;;;12396805;28;20054;-40
2021/06/14 20:39:22;;;;;;;6.70;2.80;;;21.60;99.90;;;;;;12393654;28;20054;-40
2021/06/14 20:45:24;;;;;;;6.90;2.67;;;21.60;99.90;;;;;;12386998;28;20050;-40
2021/06/14 20:51:26;;;;;;;8.07;2.85;;;21.60;99.90;;;;;;12389381;28;20524;-41
2021/06/14 20:57:28;;;;;;;4.80;2.40;;;21.60;99.90;;;;;;12390736;28;20115;-40
2021/06/14 21:03:29;;;;;;;6.15;2.80;;;21.60;99.90;;;;;;12387003;28;20056;-40
2021/06/14 21:09:31;;;;;;;9.43;3.20;;;21.50;99.90;;;;;;12389182;28;20469;-40
2021/06/14 21:15:33;;;;;;;8.13;2.70;;;21.50;99.90;;;;;;12392484;28;20383;-40
2021/06/14 21:21:35;;;;;;;5.57;2.35;;;21.50;99.90;;;;;;12388336;28;20042;-40
2021/06/14 21:27:40;;;;;;;8.93;3.03;;;21.40;99.90;;;;;;12388742;28;20057;-41
2021/06/14 21:33:42;;;;;;;3.90;2.70;;;21.20;99.90;;;;;;12392121;28;20049;-40
2021/06/14 21:39:44;;;;;;;6.15;2.60;;;20.90;99.90;;;;;;12391835;28;20058;-40
2021/06/14 21:45:45;;;;;;;7.47;3.13;;;20.60;99.90;;;;;;12384577;28;20054;-40
2021/06/14 21:51:47;;;;;;;8.90;5.28;;;20.30;99.90;;;;;;12383813;28;20530;-41
2021/06/14 21:57:50;;;;;;;11.05;7.35;;;20.20;99.90;;;;;;12390075;28;20156;-40
2021/06/14 22:03:54;;;;;;;11.88;7.28;;;20.20;99.90;;;;;;12384613;28;20055;-40
2021/06/14 22:09:56;;;;;;;16.88;8.38;;;20.30;99.90;;;;;;12385803;28;20108;-40
2021/06/14 22:16:01;;;;;;;14.20;9.15;;;20.50;99.90;;;;;;12392473;28;20445;-40
2021/06/14 22:22:04;;;;;;;17.63;10.20;;;20.40;99.90;;;;;;12385018;28;20046;-40
2021/06/14 22:28:06;;;;;;;14.88;10.20;;;20.40;99.90;;;;;;12384085;28;20813;-41
2021/06/14 22:34:08;;;;;;;15.75;10.15;;;20.40;99.90;;;;;;12386354;28;20409;-40
2021/06/14 22:40:10;;;;;;;18.83;11.00;;;20.20;99.90;;;;;;12382864;28;20050;-41
2021/06/14 22:46:12;;;;;;;15.18;11.32;;;20.30;99.90;;;;;;12383404;28;20187;-40
2021/06/14 22:52:14;;;;;;;19.75;11.25;;;20.20;99.90;;;;;;12383095;28;20062;-42
2021/06/14 22:58:17;;;;;;;17.88;10.77;;;20.20;99.90;;;;;;12383794;28;20540;-41
2021/06/14 23:04:19;;;;;;;18.73;11.57;;;20.20;99.90;;;;;;12385505;28;20099;-40
2021/06/14 23:10:22;;;;;;;15.60;10.68;;;20.20;99.90;;;;;;12386081;28;20080;-40
2021/06/14 23:16:24;;;;;;;16.70;11.90;;;20.20;99.90;;;;;;12387537;28;20108;-40
2021/06/14 23:22:26;;;;;;;20.33;13.07;;;20.10;99.90;;;;;;12387841;28;20060;-40
2021/06/14 23:28:28;;;;;;;20.58;12.15;;;19.90;99.90;;;;;;12388419;28;20058;-39
2021/06/14 23:34:30;;;;;;;22.92;12.05;;;19.90;99.90;;;;;;12389697;28;20866;-40
2021/06/14 23:40:32;;;;;;;21.20;12.18;;;19.80;99.90;;;;;;12382172;28;20524;-41
2021/06/14 23:46:35;;;;;;;19.30;12.38;;;19.80;99.90;;;;;;12384511;28;20149;-42
2021/06/14 23:52:37;;;;;;;21.10;12.07;;;19.80;99.90;;;;;;12388515;28;20053;-39
2021/06/14 23:58:39;;;;;;;22.02;12.75;;;19.60;99.90;;;;;;12378485;28;20506;-39
